Terminal Aerodrome Forecast
Issued by NWS Boston, MA

Current Version | Previous Version | Text Only | Print | Product List | Glossary On
Versions: 1 2 3 4 5 6 7 8 9 10 11 12 13 14 15 16 17 18 19 20 21 22 23 24 25 26 27 28 29 30 31 32 33 34 35 36 37 38 39 40 41 42 43 44 45 46 47 48 49 50
000 FTUS41 KBOX 290246 AAB TAFPVD TAF AMD KPVD 290246Z 2903/2924 03012KT 6SM BR OVC007 FM291000 04012G22KT P6SM OVC012 FM291700 04014G25KT P6SM -DZ BKN015 FM292000 04014G24KT P6SM BKN015=

USA.gov is the U.S. government's official web portal to all federal, state and local government web resources and services.